Time;durP1;ratioP1;P1;durP2;ratioP2;P2;SDS_P1;SDS_P2;PMS_P1;PMS_P2;Temp;Humidity;BMP_temperature;BMP_pressure;BME280_temperature;BME280_humidity;BME280_pressure;Samples;Min_cycle;Max_cycle;Signal;HPM_P1;HPM_P2
2023/06/20 00:00:36;;;;;;;1999.90;999.90;;;21.60;71.50;;;;;;5060393;28;20032;-71
2023/06/20 00:03:03;;;;;;;1999.90;999.90;;;21.80;71.30;;;;;;5056564;28;20045;-71
2023/06/20 00:05:31;;;;;;;1999.90;999.90;;;21.90;70.70;;;;;;5052325;28;20508;-71
2023/06/20 00:07:58;;;;;;;1999.90;999.90;;;22.10;70.30;;;;;;5061368;28;20033;-70
2023/06/20 00:10:25;;;;;;;1999.90;999.90;;;22.20;70.70;;;;;;5052583;28;20028;-69
2023/06/20 00:12:53;;;;;;;1999.90;999.90;;;22.40;69.50;;;;;;5062469;28;20067;-70
2023/06/20 00:15:25;;;;;;;1999.90;999.90;;;22.60;69.20;;;;;;5056987;28;20833;-70
2023/06/20 00:17:59;;;;;;;1999.90;999.90;;;22.50;70.70;;;;;;5058745;28;20021;-70
2023/06/20 00:20:28;;;;;;;1999.90;999.90;;;22.50;71.00;;;;;;5056072;28;20039;-69
2023/06/20 00:22:56;;;;;;;1999.90;999.90;;;22.70;70.10;;;;;;5060601;28;20028;-70
2023/06/20 00:25:23;;;;;;;1999.90;999.90;;;23.20;67.80;;;;;;5054850;28;20132;-70
2023/06/20 00:27:50;;;;;;;1999.90;999.90;;;23.20;69.80;;;;;;5058221;28;20092;-69
2023/06/20 00:30:18;;;;;;;1999.90;999.90;;;23.40;69.30;;;;;;5057849;28;20104;-69
2023/06/20 00:32:45;;;;;;;1999.90;999.90;;;23.40;69.70;;;;;;5058854;28;20029;-69
2023/06/20 00:35:13;;;;;;;1999.90;999.90;;;23.70;68.50;;;;;;5052063;28;20029;-70
2023/06/20 00:37:40;;;;;;;1999.90;999.90;;;24.00;67.50;;;;;;5052760;28;20024;-73
2023/06/20 00:40:08;;;;;;;1999.90;999.90;;;24.20;66.00;;;;;;5058545;28;20035;-70
2023/06/20 00:42:36;;;;;;;1999.90;999.90;;;24.00;66.30;;;;;;5055197;28;20063;-70
2023/06/20 00:45:03;;;;;;;1999.90;999.90;;;24.40;65.60;;;;;;5051607;28;20021;-71
2023/06/20 00:47:31;;;;;;;1999.90;999.90;;;24.50;65.70;;;;;;5058277;28;20087;-71
2023/06/20 00:49:58;;;;;;;1999.90;999.90;;;24.70;65.70;;;;;;5048683;28;20079;-72
2023/06/20 00:52:26;;;;;;;1999.90;999.90;;;25.00;65.30;;;;;;5055081;28;20079;-71
2023/06/20 00:54:53;;;;;;;1999.90;999.90;;;25.20;64.90;;;;;;5056248;28;20036;-70
2023/06/20 00:57:21;;;;;;;1999.90;999.90;;;25.40;64.50;;;;;;5046729;28;20044;-72
2023/06/20 00:59:50;;;;;;;1999.90;999.90;;;25.70;64.00;;;;;;5047720;28;20055;-71
2023/06/20 01:02:17;;;;;;;1999.90;999.90;;;26.10;62.60;;;;;;5049249;28;20443;-69
2023/06/20 01:04:48;;;;;;;1999.90;999.90;;;26.00;63.50;;;;;;5065580;28;20041;-69
2023/06/20 01:07:59;;;;;;;1999.90;999.90;;;26.10;63.90;;;;;;5047688;28;20059;-70
2023/06/20 01:10:38;;;;;;;1999.90;999.90;;;26.20;63.00;;;;;;5063610;28;20040;-68
2023/06/20 01:13:23;;;;;;;1999.90;999.90;;;26.30;63.40;;;;;;5054336;28;20045;-70
2023/06/20 01:16:02;;;;;;;1999.90;999.90;;;26.30;63.40;;;;;;5045087;28;20030;-72
2023/06/20 01:18:46;;;;;;;1999.90;999.90;;;26.60;63.90;;;;;;5056010;28;20522;-71
2023/06/20 01:21:21;;;;;;;1999.90;999.90;;;26.80;62.40;;;;;;5050875;28;20430;-72
2023/06/20 01:24:05;;;;;;;1999.90;999.90;;;26.90;62.40;;;;;;5058654;28;20025;-71
2023/06/20 01:26:41;;;;;;;1999.90;999.90;;;27.00;61.00;;;;;;5054587;28;20017;-70
2023/06/20 01:29:20;;;;;;;1999.90;999.90;;;27.10;60.90;;;;;;5052003;28;20037;-71
2023/06/20 01:31:58;;;;;;;1999.90;999.90;;;27.30;61.20;;;;;;5052686;28;20112;-70
2023/06/20 01:34:29;;;;;;;1999.90;999.90;;;27.60;60.30;;;;;;5048436;28;20195;-72
2023/06/20 01:37:01;;;;;;;1999.90;999.90;;;27.50;59.50;;;;;;5055710;28;20029;-70
2023/06/20 01:39:36;;;;;;;1999.90;999.90;;;27.50;59.40;;;;;;5057178;28;20210;-69
2023/06/20 01:42:04;;;;;;;1999.90;999.90;;;27.30;59.20;;;;;;5057925;28;20021;-71
2023/06/20 01:44:34;;;;;;;1999.90;999.90;;;27.40;59.60;;;;;;5054789;28;20029;-70
2023/06/20 01:47:07;;;;;;;1999.90;999.90;;;27.60;59.60;;;;;;5055265;28;20029;-71
2023/06/20 01:49:36;;;;;;;1999.90;999.90;;;27.60;58.70;;;;;;5066312;28;20108;-71
2023/06/20 01:52:04;;;;;;;1999.90;999.90;;;27.50;59.80;;;;;;5053335;28;20415;-71
2023/06/20 01:54:34;;;;;;;1999.90;999.90;;;27.60;59.20;;;;;;5051291;28;20036;-72
2023/06/20 01:57:03;;;;;;;1999.90;999.90;;;27.50;58.70;;;;;;5064189;28;20025;-71
2023/06/20 01:59:31;;;;;;;1999.90;999.90;;;27.60;57.40;;;;;;5047483;28;20033;-72
2023/06/20 02:02:00;;;;;;;1999.90;999.90;;;27.40;58.50;;;;;;5052005;28;20055;-70
2023/06/20 02:04:29;;;;;;;1999.90;999.90;;;27.30;58.30;;;;;;5051058;28;20049;-70
2023/06/20 02:06:58;;;;;;;1999.90;999.90;;;27.30;57.90;;;;;;5059665;28;20116;-70
2023/06/20 02:09:26;;;;;;;1999.90;999.90;;;27.20;57.00;;;;;;5053097;28;20058;-73
2023/06/20 02:11:54;;;;;;;1999.90;999.90;;;27.10;58.20;;;;;;5052584;28;20083;-71
2023/06/20 02:14:22;;;;;;;1999.90;999.90;;;26.80;57.30;;;;;;5065246;28;20461;-72
2023/06/20 02:16:50;;;;;;;1999.90;999.90;;;26.80;57.90;;;;;;5060088;28;20029;-73
2023/06/20 02:19:18;;;;;;;1999.90;999.90;;;26.80;58.20;;;;;;5058067;28;20064;-70
2023/06/20 02:21:49;;;;;;;1999.90;999.90;;;26.80;59.70;;;;;;5054732;28;20021;-71
2023/06/20 02:24:22;;;;;;;1999.90;999.90;;;27.00;58.50;;;;;;5059057;28;20047;-71
2023/06/20 02:26:51;;;;;;;1999.90;999.90;;;27.10;58.50;;;;;;5056616;28;20094;-72
2023/06/20 02:29:19;;;;;;;1999.90;999.90;;;27.10;58.10;;;;;;5055349;28;20025;-73
2023/06/20 02:31:49;;;;;;;1999.90;999.90;;;26.90;58.30;;;;;;5055642;28;20083;-74
2023/06/20 02:34:21;;;;;;;1999.90;999.90;;;26.80;58.60;;;;;;5058435;28;20035;-71
2023/06/20 02:36:50;;;;;;;1999.90;999.90;;;26.70;57.90;;;;;;5056038;28;20021;-72
2023/06/20 02:39:18;;;;;;;1999.90;999.90;;;26.50;58.30;;;;;;5059599;28;20079;-73
2023/06/20 02:41:45;;;;;;;1999.90;999.90;;;26.40;58.60;;;;;;5046731;28;20036;-72
2023/06/20 02:44:13;;;;;;;1999.90;999.90;;;26.10;58.50;;;;;;5047793;28;20029;-75
2023/06/20 02:46:40;;;;;;;1999.90;999.90;;;25.90;59.10;;;;;;5050837;28;20056;-70
2023/06/20 02:49:12;;;;;;;1999.90;999.90;;;25.70;57.80;;;;;;5049428;28;20035;-69
2023/06/20 02:52:05;;;;;;;1999.90;999.90;;;25.30;58.90;;;;;;5046368;28;20142;-72
2023/06/20 02:54:42;;;;;;;1999.90;999.90;;;25.00;58.20;;;;;;5048846;28;20449;-70
2023/06/20 02:57:13;;;;;;;1999.90;999.90;;;24.50;58.60;;;;;;5044556;28;20028;-72
2023/06/20 02:59:45;;;;;;;1999.90;999.90;;;24.30;59.60;;;;;;5045498;28;20062;-73
2023/06/20 03:02:17;;;;;;;1999.90;999.90;;;24.10;59.80;;;;;;5049103;28;20043;-70
2023/06/20 03:04:47;;;;;;;1999.90;999.90;;;23.80;60.00;;;;;;5055160;28;20037;-70
2023/06/20 03:07:15;;;;;;;1999.90;999.90;;;23.40;59.80;;;;;;5048209;28;20100;-70
2023/06/20 03:09:44;;;;;;;1999.90;999.90;;;23.10;60.40;;;;;;5058254;28;20028;-70
2023/06/20 03:12:12;;;;;;;1999.90;999.90;;;22.90;60.40;;;;;;5052259;28;20451;-69
2023/06/20 03:14:40;;;;;;;1999.90;999.90;;;22.70;61.20;;;;;;5055350;28;20487;-69
2023/06/20 03:17:09;;;;;;;1999.90;999.90;;;22.40;60.40;;;;;;5056942;28;20029;-73
2023/06/20 03:19:36;;;;;;;1999.90;999.90;;;22.10;60.30;;;;;;5052643;28;20040;-76
2023/06/20 03:22:04;;;;;;;1999.90;999.90;;;21.70;61.20;;;;;;5052716;28;20017;-70
2023/06/20 03:24:31;;;;;;;1999.90;999.90;;;21.50;62.20;;;;;;5052046;28;20463;-70
2023/06/20 03:26:59;;;;;;;1999.90;999.90;;;21.30;62.70;;;;;;5052132;28;20036;-69
2023/06/20 03:29:26;;;;;;;1999.90;999.90;;;20.80;62.20;;;;;;5048512;28;20025;-69
2023/06/20 03:31:53;;;;;;;1999.90;999.90;;;20.40;63.00;;;;;;5055824;28;20080;-68
2023/06/20 03:34:21;;;;;;;1999.90;999.90;;;20.00;63.80;;;;;;5054571;28;20032;-69
2023/06/20 03:36:48;;;;;;;1999.90;999.90;;;19.50;64.80;;;;;;5056261;28;20021;-69
2023/06/20 03:39:15;;;;;;;1999.90;999.90;;;19.10;64.40;;;;;;5053197;28;20371;-75
2023/06/20 03:41:42;;;;;;;1999.90;999.90;;;18.80;64.60;;;;;;5049231;28;20032;-69
2023/06/20 03:44:10;;;;;;;1999.90;999.90;;;18.40;64.80;;;;;;5055466;28;20431;-72
2023/06/20 03:46:37;;;;;;;1999.90;999.90;;;18.10;65.50;;;;;;5052408;28;20044;-72
2023/06/20 03:49:04;;;;;;;1999.90;999.90;;;17.80;66.90;;;;;;5057196;28;20135;-72
2023/06/20 03:51:31;;;;;;;1999.90;999.90;;;17.70;66.60;;;;;;5053744;28;20017;-72
2023/06/20 03:53:59;;;;;;;1999.90;999.90;;;17.50;66.30;;;;;;5057571;28;20036;-72
2023/06/20 03:56:26;;;;;;;1999.90;999.90;;;17.30;66.70;;;;;;5054690;28;20032;-73
2023/06/20 03:58:54;;;;;;;1999.90;999.90;;;17.10;66.80;;;;;;5061465;28;20041;-72
2023/06/20 04:01:24;;;;;;;1999.90;999.90;;;16.90;67.20;;;;;;5047721;28;20814;-72
2023/06/20 04:03:53;;;;;;;1999.90;999.90;;;16.70;67.60;;;;;;5053865;28;20053;-71
2023/06/20 04:06:29;;;;;;;1999.90;999.90;;;16.70;67.60;;;;;;5049019;28;20063;-72
2023/06/20 04:08:57;;;;;;;1999.90;999.90;;;16.60;67.70;;;;;;5060895;28;20467;-72
2023/06/20 04:11:25;;;;;;;1999.90;999.90;;;16.60;67.30;;;;;;5049540;28;20032;-71
2023/06/20 04:13:52;;;;;;;1999.90;999.90;;;16.50;67.50;;;;;;5061918;28;20036;-71
2023/06/20 04:16:20;;;;;;;1999.90;999.90;;;16.40;68.10;;;;;;5051834;28;20028;-71
2023/06/20 04:18:47;;;;;;;1999.90;999.90;;;16.30;68.40;;;;;;5052303;28;20032;-71
2023/06/20 04:21:16;;;;;;;1999.90;999.90;;;16.30;68.60;;;;;;5042350;28;20021;-71
2023/06/20 04:23:45;;;;;;;1999.90;999.90;;;16.10;68.40;;;;;;5059195;28;20032;-71
2023/06/20 04:26:12;;;;;;;1999.90;999.90;;;16.00;68.70;;;;;;5049018;28;20028;-72
2023/06/20 04:28:40;;;;;;;1999.90;999.90;;;15.90;69.30;;;;;;5054291;28;20037;-72
2023/06/20 04:31:08;;;;;;;1999.90;999.90;;;15.80;69.30;;;;;;5053431;28;20036;-72
2023/06/20 04:33:35;;;;;;;1999.90;999.90;;;15.80;69.50;;;;;;5057086;28;20520;-70
2023/06/20 04:36:02;;;;;;;1999.90;999.90;;;15.70;69.50;;;;;;5049064;28;20028;-72
2023/06/20 04:38:30;;;;;;;1999.90;999.90;;;15.60;69.70;;;;;;5053767;28;20380;-72
2023/06/20 04:41:00;;;;;;;1999.90;999.90;;;15.70;69.40;;;;;;5052616;28;20029;-71
2023/06/20 04:43:27;;;;;;;1999.90;999.90;;;15.60;70.50;;;;;;5057056;28;20059;-70
2023/06/20 04:45:56;;;;;;;1999.90;999.90;;;15.50;70.40;;;;;;5058264;28;20026;-72
2023/06/20 04:48:28;;;;;;;1999.90;999.90;;;15.50;69.90;;;;;;5056068;28;20024;-70
2023/06/20 04:50:56;;;;;;;1999.90;999.90;;;15.40;70.60;;;;;;5073946;28;20024;-71
2023/06/20 04:53:25;;;;;;;1999.90;999.90;;;15.40;71.20;;;;;;5062823;28;20391;-72
2023/06/20 04:55:53;;;;;;;1999.90;999.90;;;15.40;71.20;;;;;;5053218;28;20044;-70
2023/06/20 04:58:21;;;;;;;1999.90;999.90;;;15.30;70.50;;;;;;5057151;28;20083;-71
2023/06/20 05:00:48;;;;;;;1999.90;999.90;;;15.30;70.60;;;;;;5050612;28;20048;-71
2023/06/20 05:03:19;;;;;;;1999.90;999.90;;;15.30;70.80;;;;;;5062196;28;20048;-75
2023/06/20 05:05:47;;;;;;;1999.90;999.90;;;15.20;71.20;;;;;;5055431;28;20509;-71
2023/06/20 05:08:14;;;;;;;1999.90;999.90;;;15.20;71.10;;;;;;5055706;28;20037;-70
2023/06/20 05:10:41;;;;;;;1999.90;999.90;;;15.10;71.00;;;;;;5055701;28;20027;-72
2023/06/20 05:13:09;;;;;;;1999.90;999.90;;;15.00;70.50;;;;;;5063198;28;20032;-71
2023/06/20 05:15:36;;;;;;;1999.90;999.90;;;15.00;70.50;;;;;;5052345;28;20036;-71
2023/06/20 05:18:03;;;;;;;1999.90;999.90;;;14.90;70.50;;;;;;5061843;28;20544;-73
2023/06/20 05:20:31;;;;;;;1999.90;999.90;;;14.90;70.00;;;;;;5055709;28;20512;-72
2023/06/20 05:22:59;;;;;;;1999.90;999.90;;;14.90;70.70;;;;;;5061335;28;20037;-72
2023/06/20 05:25:26;;;;;;;1999.90;999.90;;;14.80;70.80;;;;;;5056081;28;20082;-72
2023/06/20 05:27:54;;;;;;;1999.90;999.90;;;14.80;71.00;;;;;;5064686;28;20032;-73
2023/06/20 05:30:21;;;;;;;1999.90;999.90;;;14.80;71.30;;;;;;5058848;28;20033;-73
2023/06/20 05:32:49;;;;;;;1999.90;999.90;;;14.80;71.20;;;;;;5050355;28;20429;-72
2023/06/20 05:35:16;;;;;;;1999.90;999.90;;;14.70;71.30;;;;;;5050992;28;20415;-72
2023/06/20 05:37:49;;;;;;;1999.90;999.90;;;14.70;71.60;;;;;;5061180;28;20032;-72
2023/06/20 05:40:16;;;;;;;1999.90;999.90;;;14.70;71.70;;;;;;5051203;28;20051;-71
2023/06/20 05:42:44;;;;;;;1999.90;999.90;;;14.60;72.10;;;;;;5056545;28;20017;-73
2023/06/20 05:45:11;;;;;;;1999.90;999.90;;;14.60;71.90;;;;;;5058836;28;20025;-72
2023/06/20 05:47:38;;;;;;;1999.90;999.90;;;14.70;72.00;;;;;;5056010;28;20029;-71
2023/06/20 05:50:07;;;;;;;1999.90;999.90;;;14.60;71.80;;;;;;5049254;28;20036;-74
2023/06/20 05:52:35;;;;;;;1999.90;999.90;;;14.60;71.60;;;;;;5057744;28;20040;-71
2023/06/20 05:55:04;;;;;;;1999.90;999.90;;;14.60;71.90;;;;;;5049128;28;20036;-72
2023/06/20 05:57:31;;;;;;;1999.90;999.90;;;14.60;72.30;;;;;;5049437;28;20507;-72
2023/06/20 05:59:58;;;;;;;1999.90;999.90;;;14.60;72.00;;;;;;5053971;28;20040;-75
2023/06/20 06:02:26;;;;;;;1999.90;999.90;;;14.50;72.70;;;;;;5046828;28;20028;-71
2023/06/20 06:04:53;;;;;;;1999.90;999.90;;;14.60;72.90;;;;;;5047335;28;20044;-75
2023/06/20 06:07:21;;;;;;;1999.90;999.90;;;14.70;72.70;;;;;;5047194;28;20039;-72
2023/06/20 06:09:48;;;;;;;1999.90;999.90;;;14.80;72.60;;;;;;5041826;28;20128;-74
2023/06/20 06:12:16;;;;;;;1999.90;999.90;;;14.80;72.70;;;;;;5052019;28;20061;-72
2023/06/20 06:14:43;;;;;;;1999.90;999.90;;;14.80;72.20;;;;;;5047505;28;20039;-71
2023/06/20 06:17:11;;;;;;;1999.90;999.90;;;14.80;72.10;;;;;;5045509;28;20046;-70
2023/06/20 06:19:38;;;;;;;1999.90;999.90;;;14.70;72.50;;;;;;5062860;28;20024;-71
2023/06/20 06:22:06;;;;;;;1999.90;999.90;;;14.70;73.00;;;;;;5054568;28;20038;-71
2023/06/20 06:24:33;;;;;;;1999.90;999.90;;;14.60;73.00;;;;;;5054298;28;20037;-72
2023/06/20 06:27:00;;;;;;;1999.90;999.90;;;14.50;73.10;;;;;;5049608;28;20033;-72
2023/06/20 06:29:28;;;;;;;1999.90;999.90;;;14.40;73.50;;;;;;5061532;28;20025;-70
2023/06/20 06:31:59;;;;;;;1999.90;999.90;;;14.20;73.80;;;;;;5056718;28;20033;-72
2023/06/20 06:34:26;;;;;;;1999.90;999.90;;;14.10;74.40;;;;;;5063069;28;20054;-70
2023/06/20 06:36:54;;;;;;;1999.90;999.90;;;13.90;74.60;;;;;;5043157;28;20025;-73
2023/06/20 06:39:21;;;;;;;1999.90;999.90;;;13.80;75.00;;;;;;5052091;28;20025;-71
2023/06/20 06:41:49;;;;;;;1999.90;999.90;;;13.60;75.50;;;;;;5051739;28;20029;-75
2023/06/20 06:44:17;;;;;;;1999.90;999.90;;;13.50;76.40;;;;;;5059450;28;20063;-72
2023/06/20 06:46:45;;;;;;;1999.90;999.90;;;13.40;76.10;;;;;;5061425;28;20029;-72
2023/06/20 06:49:12;;;;;;;1999.90;999.90;;;13.20;76.10;;;;;;5057808;28;20601;-72
2023/06/20 06:51:41;;;;;;;1999.90;999.90;;;13.10;76.80;;;;;;5051892;28;20414;-71
2023/06/20 06:54:08;;;;;;;1999.90;999.90;;;12.90;77.30;;;;;;5055901;28;20060;-74
2023/06/20 06:56:35;;;;;;;1999.90;999.90;;;12.80;77.80;;;;;;5051818;28;20016;-71
2023/06/20 06:59:03;;;;;;;1999.90;999.90;;;12.70;78.30;;;;;;5059314;28;20057;-71
2023/06/20 07:01:30;;;;;;;1999.90;999.90;;;12.60;78.40;;;;;;5051933;28;20100;-72
2023/06/20 07:03:58;;;;;;;1999.90;999.90;;;12.40;78.40;;;;;;5056616;28;20103;-70
2023/06/20 07:06:34;;;;;;;1999.90;999.90;;;12.30;78.80;;;;;;5048565;28;20941;-71
2023/06/20 07:09:02;;;;;;;1999.90;999.90;;;12.20;79.00;;;;;;5050664;28;20124;-72
2023/06/20 07:11:29;;;;;;;1999.90;999.90;;;12.10;79.70;;;;;;5042516;28;20029;-73
2023/06/20 07:13:57;;;;;;;1999.90;999.90;;;12.00;80.50;;;;;;5055973;28;20044;-70
2023/06/20 07:16:25;;;;;;;1999.90;999.90;;;11.90;81.00;;;;;;5051026;28;20028;-71
2023/06/20 07:18:53;;;;;;;1999.90;999.90;;;11.80;81.50;;;;;;5049641;28;20057;-71
2023/06/20 07:21:20;;;;;;;1999.90;999.90;;;11.70;81.30;;;;;;5050892;28;20484;-71
2023/06/20 07:23:47;;;;;;;1999.90;999.90;;;11.60;81.60;;;;;;5052574;28;20024;-72
2023/06/20 07:26:15;;;;;;;1999.90;999.90;;;11.50;82.20;;;;;;5049988;28;20598;-72
2023/06/20 07:28:42;;;;;;;1999.90;999.90;;;11.40;82.20;;;;;;5044957;28;20054;-72
2023/06/20 07:31:22;;;;;;;1999.90;999.90;;;11.40;82.40;;;;;;5048769;28;20540;-73
2023/06/20 07:33:49;;;;;;;1999.90;999.90;;;11.30;82.90;;;;;;5044306;28;20037;-73
2023/06/20 07:36:17;;;;;;;1999.90;999.90;;;11.30;83.30;;;;;;5048381;28;20029;-73
2023/06/20 07:38:44;;;;;;;1999.90;999.90;;;11.20;83.30;;;;;;5055571;28;20476;-73
2023/06/20 07:41:11;;;;;;;1999.90;999.90;;;11.10;83.30;;;;;;5051799;28;20017;-72
2023/06/20 07:43:39;;;;;;;1999.90;999.90;;;11.00;83.60;;;;;;5050550;28;20055;-73
2023/06/20 07:46:06;;;;;;;1999.90;999.90;;;10.90;83.60;;;;;;5046924;28;20052;-73
2023/06/20 07:48:33;;;;;;;1999.90;999.90;;;10.80;84.00;;;;;;5049308;28;20029;-73
2023/06/20 07:51:01;;;;;;;1999.90;999.90;;;10.70;83.90;;;;;;5054044;28;20044;-72
2023/06/20 07:53:29;;;;;;;1999.90;999.90;;;10.70;84.00;;;;;;5055814;28;20111;-72
2023/06/20 07:55:56;;;;;;;1999.90;999.90;;;10.60;84.20;;;;;;5059302;28;20043;-73
2023/06/20 07:58:23;;;;;;;1999.90;999.90;;;10.60;84.30;;;;;;5051679;28;20025;-73
2023/06/20 08:00:52;;;;;;;1999.90;999.90;;;10.50;85.60;;;;;;5042811;28;20040;-74
2023/06/20 08:03:25;;;;;;;1999.90;999.90;;;10.50;86.50;;;;;;5053215;28;20071;-72
2023/06/20 08:05:53;;;;;;;1999.90;999.90;;;10.40;86.90;;;;;;5048645;28;20396;-74
2023/06/20 08:08:20;;;;;;;1999.90;999.90;;;10.30;87.30;;;;;;5054931;28;20661;-72
2023/06/20 08:10:48;;;;;;;1999.90;999.90;;;10.20;87.80;;;;;;5052356;28;20063;-74
2023/06/20 08:13:15;;;;;;;1999.90;999.90;;;10.10;88.20;;;;;;5054988;28;20425;-71
2023/06/20 08:15:42;;;;;;;1999.90;999.90;;;9.90;88.60;;;;;;5058822;28;20092;-71
2023/06/20 08:18:09;;;;;;;1999.90;999.90;;;9.80;89.20;;;;;;5061913;28;20020;-71
2023/06/20 08:20:37;;;;;;;1999.90;999.90;;;9.70;89.60;;;;;;5062302;28;20032;-70
2023/06/20 08:23:04;;;;;;;1999.90;999.90;;;9.70;89.80;;;;;;5058741;28;20036;-72
2023/06/20 08:25:31;;;;;;;1999.90;999.90;;;9.60;89.80;;;;;;5059557;28;20446;-71
2023/06/20 08:28:00;;;;;;;1999.90;999.90;;;9.50;89.50;;;;;;5059675;28;20025;-71
2023/06/20 08:30:27;;;;;;;1999.90;999.90;;;9.50;89.40;;;;;;5057749;28;20028;-72
2023/06/20 08:32:54;;;;;;;1999.90;999.90;;;9.40;89.70;;;;;;5054454;28;20017;-72
2023/06/20 08:35:21;;;;;;;1999.90;999.90;;;9.40;89.60;;;;;;5056065;28;20029;-71
2023/06/20 08:37:49;;;;;;;1999.90;999.90;;;9.30;89.50;;;;;;5052403;28;20047;-71
2023/06/20 08:40:16;;;;;;;1999.90;999.90;;;9.30;90.00;;;;;;5053849;28;20056;-73
2023/06/20 08:42:44;;;;;;;1999.90;999.90;;;9.20;90.20;;;;;;5053370;28;22010;-72
2023/06/20 08:45:13;;;;;;;1999.90;999.90;;;9.20;90.50;;;;;;5059889;28;20025;-72
2023/06/20 08:47:40;;;;;;;1999.90;999.90;;;9.20;90.80;;;;;;5053080;28;20483;-72
2023/06/20 08:50:08;;;;;;;1999.90;999.90;;;9.10;91.00;;;;;;5049803;28;20494;-73
2023/06/20 08:52:53;;;;;;;1999.90;999.90;;;9.10;91.30;;;;;;5052953;28;20037;-73
2023/06/20 08:55:22;;;;;;;1999.90;999.90;;;9.00;91.60;;;;;;5054772;28;20044;-70
2023/06/20 08:57:51;;;;;;;1999.90;999.90;;;9.00;91.70;;;;;;5047051;28;20021;-71
2023/06/20 09:00:23;;;;;;;1999.90;999.90;;;9.00;91.70;;;;;;5048809;28;20029;-69
2023/06/20 09:02:51;;;;;;;1999.90;999.90;;;9.00;91.90;;;;;;5048827;28;20434;-70
2023/06/20 09:05:19;;;;;;;1999.90;999.90;;;9.00;92.10;;;;;;5051074;28;20017;-71
2023/06/20 09:07:47;;;;;;;1999.90;999.90;;;8.90;92.00;;;;;;5057924;28;20480;-70
2023/06/20 09:10:21;;;;;;;1999.90;999.90;;;8.90;92.10;;;;;;5058011;28;20029;-72
2023/06/20 09:12:50;;;;;;;1999.90;999.90;;;8.80;92.20;;;;;;5049477;28;20033;-70
2023/06/20 09:15:23;;;;;;;1999.90;999.90;;;8.80;92.30;;;;;;5050598;28;20045;-74
2023/06/20 09:18:01;;;;;;;1999.90;999.90;;;8.70;92.40;;;;;;5047121;28;20050;-72
2023/06/20 09:20:36;;;;;;;1999.90;999.90;;;8.70;92.50;;;;;;5053989;28;20032;-75
2023/06/20 09:23:03;;;;;;;1999.90;999.90;;;8.70;92.50;;;;;;5061461;28;20075;-72
2023/06/20 09:25:30;;;;;;;1999.90;999.90;;;8.70;92.60;;;;;;5053620;28;20036;-72
2023/06/20 09:27:58;;;;;;;1999.90;999.90;;;8.70;92.70;;;;;;5053599;28;20029;-70
2023/06/20 09:30:30;;;;;;;1999.90;999.90;;;8.70;92.70;;;;;;5042828;28;20076;-70
2023/06/20 09:33:05;;;;;;;1999.90;999.90;;;8.80;92.70;;;;;;5056490;28;20029;-69
2023/06/20 09:35:33;;;;;;;1999.90;999.90;;;8.80;92.70;;;;;;5052104;28;20033;-70
2023/06/20 09:38:05;;;;;;;1999.90;999.90;;;8.80;92.80;;;;;;5052024;28;20037;-70
2023/06/20 09:40:41;;;;;;;1999.90;999.90;;;8.80;92.90;;;;;;5048916;28;20033;-71
2023/06/20 09:43:09;;;;;;;1999.90;999.90;;;8.80;93.00;;;;;;5050942;28;20163;-71
2023/06/20 09:45:37;;;;;;;1999.90;999.90;;;8.80;92.90;;;;;;5052996;28;20086;-69
2023/06/20 09:48:06;;;;;;;1999.90;999.90;;;8.80;92.80;;;;;;5058311;28;20147;-71
2023/06/20 09:50:35;;;;;;;1999.90;999.90;;;8.80;92.90;;;;;;5048900;28;20057;-70
2023/06/20 09:53:10;;;;;;;1999.90;999.90;;;8.70;93.00;;;;;;5057951;28;20025;-74
2023/06/20 09:55:38;;;;;;;1999.90;999.90;;;8.70;93.20;;;;;;5049873;28;20037;-73
2023/06/20 09:58:06;;;;;;;1999.90;999.90;;;8.60;93.20;;;;;;5048886;28;20127;-72
2023/06/20 10:00:36;;;;;;;1999.90;999.90;;;8.60;93.30;;;;;;5053365;28;20108;-71
2023/06/20 10:03:09;;;;;;;1999.90;999.90;;;8.60;93.30;;;;;;5059813;28;20033;-72
2023/06/20 10:05:37;;;;;;;1999.90;999.90;;;8.60;93.40;;;;;;5054429;28;20128;-71
2023/06/20 10:08:06;;;;;;;1999.90;999.90;;;8.60;93.40;;;;;;5057008;28;20024;-70
2023/06/20 10:10:34;;;;;;;1999.90;999.90;;;8.50;93.50;;;;;;5059728;28;21096;-73
2023/06/20 10:13:01;;;;;;;1999.90;999.90;;;8.50;93.70;;;;;;5056993;28;20109;-74
2023/06/20 10:15:28;;;;;;;1999.90;999.90;;;8.50;93.80;;;;;;5054746;28;20443;-74
2023/06/20 10:17:56;;;;;;;1999.90;999.90;;;8.50;94.00;;;;;;5064786;28;20042;-74
2023/06/20 10:20:33;;;;;;;1999.90;999.90;;;8.50;94.10;;;;;;5051023;28;20035;-73
2023/06/20 10:23:10;;;;;;;1999.90;999.90;;;8.50;94.20;;;;;;5048535;28;20065;-72
2023/06/20 10:25:58;;;;;;;1999.90;999.90;;;8.40;94.10;;;;;;5049571;28;20039;-76
2023/06/20 10:28:25;;;;;;;1999.90;999.90;;;8.30;94.30;;;;;;5057073;28;20032;-74
2023/06/20 10:31:00;;;;;;;1999.90;999.90;;;8.20;94.70;;;;;;5048703;28;20052;-72
2023/06/20 10:33:33;;;;;;;1999.90;999.90;;;8.10;94.90;;;;;;5050905;28;20048;-73
2023/06/20 10:36:07;;;;;;;1999.90;999.90;;;8.00;95.10;;;;;;5045136;28;20558;-75
2023/06/20 10:38:39;;;;;;;1999.90;999.90;;;7.90;95.20;;;;;;5056101;28;20076;-70
2023/06/20 10:41:12;;;;;;;1999.90;999.90;;;7.80;95.40;;;;;;5051097;28;20048;-70
2023/06/20 10:43:49;;;;;;;1999.90;999.90;;;7.80;95.60;;;;;;5059911;28;20451;-73
2023/06/20 10:46:18;;;;;;;1999.90;999.90;;;7.70;95.80;;;;;;5055432;28;20028;-71
2023/06/20 10:48:46;;;;;;;1999.90;999.90;;;7.60;96.00;;;;;;5056176;28;20063;-71
2023/06/20 10:51:13;;;;;;;1999.90;999.90;;;7.60;96.20;;;;;;5053742;28;20032;-70
2023/06/20 10:53:40;;;;;;;1999.90;999.90;;;7.50;96.30;;;;;;5055087;28;20388;-78
2023/06/20 10:56:08;;;;;;;1999.90;999.90;;;7.40;96.60;;;;;;5044917;28;20036;-73
2023/06/20 10:58:35;;;;;;;1999.90;999.90;;;7.40;96.70;;;;;;5053216;28;20036;-74
2023/06/20 11:01:02;;;;;;;1999.90;999.90;;;7.30;96.80;;;;;;5051298;28;20480;-75
2023/06/20 11:03:30;;;;;;;1999.90;999.90;;;7.30;97.00;;;;;;5054324;28;20052;-75
2023/06/20 11:05:58;;;;;;;1999.90;999.90;;;7.30;97.20;;;;;;5050352;28;20032;-72
2023/06/20 11:08:27;;;;;;;1999.90;999.90;;;7.30;97.30;;;;;;5057636;28;20052;-72
2023/06/20 11:10:57;;;;;;;1999.90;999.90;;;7.30;97.40;;;;;;5053681;28;20033;-75
2023/06/20 11:13:25;;;;;;;1999.90;999.90;;;7.20;97.60;;;;;;5051983;28;20390;-75
2023/06/20 11:15:52;;;;;;;1999.90;999.90;;;7.20;97.70;;;;;;5058182;28;20096;-74
2023/06/20 11:18:20;;;;;;;1999.90;999.90;;;7.20;97.90;;;;;;5069146;28;20090;-76
2023/06/20 11:20:48;;;;;;;1999.90;999.90;;;7.10;97.80;;;;;;5055628;28;20081;-74
2023/06/20 11:23:15;;;;;;;1999.90;999.90;;;7.10;98.40;;;;;;5059569;28;20025;-76
2023/06/20 11:25:44;;;;;;;1999.90;999.90;;;7.10;98.30;;;;;;5054456;28;20032;-75
2023/06/20 11:28:13;;;;;;;1999.90;999.90;;;7.00;98.60;;;;;;5057471;28;20059;-75
2023/06/20 11:30:48;;;;;;;1999.90;999.90;;;7.00;98.60;;;;;;5052029;28;20037;-72
2023/06/20 11:33:17;;;;;;;1999.90;999.90;;;6.90;98.70;;;;;;5058016;28;20123;-72
2023/06/20 11:35:44;;;;;;;1999.90;999.90;;;6.90;98.70;;;;;;5051155;28;20532;-72
2023/06/20 11:38:14;;;;;;;1999.90;999.90;;;6.80;98.80;;;;;;5047569;28;20040;-71
2023/06/20 11:40:43;;;;;;;1999.90;999.90;;;6.80;99.00;;;;;;5052555;28;20025;-72
2023/06/20 11:43:27;;;;;;;1999.90;999.90;;;6.80;99.10;;;;;;5061012;28;20119;-72
2023/06/20 11:46:01;;;;;;;1999.90;999.90;;;6.70;99.20;;;;;;5049051;28;20033;-72
2023/06/20 11:48:29;;;;;;;1999.90;999.90;;;6.60;99.30;;;;;;5056546;28;20025;-72
2023/06/20 11:50:57;;;;;;;1999.90;999.90;;;6.50;99.50;;;;;;5057878;28;20029;-72
2023/06/20 11:53:37;;;;;;;1999.90;999.90;;;6.40;99.90;;;;;;5057233;28;20032;-73
2023/06/20 11:56:07;;;;;;;1999.90;999.90;;;6.40;99.90;;;;;;5062446;28;20498;-72
2023/06/20 11:58:42;;;;;;;1999.90;999.90;;;6.30;99.90;;;;;;5046955;28;20021;-72
2023/06/20 12:01:14;;;;;;;1999.90;999.90;;;6.10;99.90;;;;;;5053596;28;20025;-72
2023/06/20 12:03:43;;;;;;;1999.90;999.90;;;6.10;99.90;;;;;;5056894;28;20626;-75
2023/06/20 12:06:31;;;;;;;1999.90;999.90;;;6.00;99.90;;;;;;5056814;28;20032;-71
2023/06/20 12:09:01;;;;;;;1999.90;999.90;;;6.00;99.90;;;;;;5054170;28;20480;-72
2023/06/20 12:11:29;;;;;;;1999.90;999.90;;;6.10;99.90;;;;;;5062588;28;20361;-73